Zooks Corner, Pennsylvania
Current Conditions -  °F | °C
As of 7:53 AM on Friday 28 Nov 2014 (Local Time) from KLNS Reporting Station
Clear Clear  
Wind Chill: 22°   Ceiling: Unl
Heat Index: 29°   Visibility: 10mi
Dew Point: 21°   Wind: 7mph
Humidity: 72%   Direction: 290°WNW
Pressure: 30.23"   Gusts: NA
Location:  40.0158°N, 76.2452°W
Report Text: KLNS 281253Z 29006KT 10SM CLR M02/M06 A3023 RMK AO2 SLP241 T10171061
Loading
Personal Weather Stations






























Interactive Weather Map New forecast layout! Learn more

10-Day Weather Forecast

Advertisements
Track Severe Weather on mobile